sensor_id;sensor_type;location;lat;lon;timestamp;pressure;altitude;pressure_sealevel;temperature
13497;BMP180;6820;49.374;8.452;2022-12-24T00:02:20;99997.50;;;18.91
13497;BMP180;6820;49.374;8.452;2022-12-24T00:06:22;100012.28;;;19.01
13497;BMP180;6820;49.374;8.452;2022-12-24T00:10:24;100021.84;;;19.06
13497;BMP180;6820;49.374;8.452;2022-12-24T00:14:26;100034.75;;;19.11
13497;BMP180;6820;49.374;8.452;2022-12-24T00:18:27;100028.88;;;19.16
13497;BMP180;6820;49.374;8.452;2022-12-24T00:22:29;100047.59;;;19.09
13497;BMP180;6820;49.374;8.452;2022-12-24T00:26:32;100046.47;;;18.98
13497;BMP180;6820;49.374;8.452;2022-12-24T00:30:34;100048.47;;;18.76
13497;BMP180;6820;49.374;8.452;2022-12-24T00:34:38;100054.25;;;18.66
13497;BMP180;6820;49.374;8.452;2022-12-24T00:38:40;100046.44;;;18.62
13497;BMP180;6820;49.374;8.452;2022-12-24T00:42:41;100059.13;;;18.56
13497;BMP180;6820;49.374;8.452;2022-12-24T00:46:43;100065.88;;;18.53
13497;BMP180;6820;49.374;8.452;2022-12-24T00:50:44;100065.75;;;18.48
13497;BMP180;6820;49.374;8.452;2022-12-24T00:54:46;100076.88;;;18.47
13497;BMP180;6820;49.374;8.452;2022-12-24T00:58:48;100070.13;;;18.52
13497;BMP180;6820;49.374;8.452;2022-12-24T01:02:50;100061.53;;;18.50
13497;BMP180;6820;49.374;8.452;2022-12-24T01:06:52;100076.88;;;18.47
13497;BMP180;6820;49.374;8.452;2022-12-24T01:10:53;100085.28;;;18.42
13497;BMP180;6820;49.374;8.452;2022-12-24T01:14:55;100084.38;;;18.41
13497;BMP180;6820;49.374;8.452;2022-12-24T01:18:57;100071.56;;;18.41
13497;BMP180;6820;49.374;8.452;2022-12-24T01:22:58;100068.97;;;18.40
13497;BMP180;6820;49.374;8.452;2022-12-24T01:27:00;100104.81;;;18.37
13497;BMP180;6820;49.374;8.452;2022-12-24T01:31:04;100117.56;;;18.34
13497;BMP180;6820;49.374;8.452;2022-12-24T01:35:10;100125.16;;;18.31
13497;BMP180;6820;49.374;8.452;2022-12-24T01:39:12;100126.00;;;18.30
13497;BMP180;6820;49.374;8.452;2022-12-24T01:43:18;100143.94;;;18.29
13497;BMP180;6820;49.374;8.452;2022-12-24T01:47:26;100150.50;;;18.19
13497;BMP180;6820;49.374;8.452;2022-12-24T01:51:34;100169.22;;;18.15
13497;BMP180;6820;49.374;8.452;2022-12-24T01:55:38;100176.78;;;18.11
13497;BMP180;6820;49.374;8.452;2022-12-24T01:59:42;100167.25;;;18.07
13497;BMP180;6820;49.374;8.452;2022-12-24T02:03:44;100166.34;;;18.05
13497;BMP180;6820;49.374;8.452;2022-12-24T02:07:46;100180.88;;;18.04
13497;BMP180;6820;49.374;8.452;2022-12-24T02:11:48;100198.81;;;18.04
13497;BMP180;6820;49.374;8.452;2022-12-24T02:16:23;100190.53;;;18.14
13497;BMP180;6820;49.374;8.452;2022-12-24T02:25:09;100189.28;;;18.31
13497;BMP180;6820;49.374;8.452;2022-12-24T02:29:50;100200.41;;;18.30
13497;BMP180;6820;49.374;8.452;2022-12-24T02:34:15;100206.38;;;18.30
13497;BMP180;6820;49.374;8.452;2022-12-24T02:42:41;100206.47;;;18.33
13497;BMP180;6820;49.374;8.452;2022-12-24T02:46:44;100210.09;;;18.40
13497;BMP180;6820;49.374;8.452;2022-12-24T02:50:57;100211.97;;;18.47
13497;BMP180;6820;49.374;8.452;2022-12-24T02:55:02;100206.06;;;18.49
13497;BMP180;6820;49.374;8.452;2022-12-24T03:08:01;100237.59;;;18.45
13497;BMP180;6820;49.374;8.452;2022-12-24T03:12:12;100222.94;;;18.41
13497;BMP180;6820;49.374;8.452;2022-12-24T03:16:20;100227.00;;;18.33
13497;BMP180;6820;49.374;8.452;2022-12-24T03:20:36;100224.97;;;18.22
13497;BMP180;6820;49.374;8.452;2022-12-24T03:24:38;100198.22;;;18.13
13497;BMP180;6820;49.374;8.452;2022-12-24T03:28:41;100218.53;;;18.07
13497;BMP180;6820;49.374;8.452;2022-12-24T03:32:44;100243.97;;;18.01
13497;BMP180;6820;49.374;8.452;2022-12-24T03:36:47;100245.66;;;18.00
13497;BMP180;6820;49.374;8.452;2022-12-24T03:40:49;100238.84;;;18.01
13497;BMP180;6820;49.374;8.452;2022-12-24T03:44:51;100233.81;;;18.02
13497;BMP180;6820;49.374;8.452;2022-12-24T03:48:53;100221.91;;;18.04
13497;BMP180;6820;49.374;8.452;2022-12-24T03:52:55;100221.84;;;18.03
13497;BMP180;6820;49.374;8.452;2022-12-24T03:56:57;100232.19;;;18.06
13497;BMP180;6820;49.374;8.452;2022-12-24T04:00:58;100243.44;;;18.11
13497;BMP180;6820;49.374;8.452;2022-12-24T04:05:00;100231.47;;;18.10
13497;BMP180;6820;49.374;8.452;2022-12-24T04:09:02;100251.97;;;18.10
13497;BMP180;6820;49.374;8.452;2022-12-24T04:13:05;100257.13;;;18.11
13497;BMP180;6820;49.374;8.452;2022-12-24T04:17:07;100243.53;;;18.14
13497;BMP180;6820;49.374;8.452;2022-12-24T04:21:09;100249.59;;;18.17
13497;BMP180;6820;49.374;8.452;2022-12-24T04:25:11;100250.59;;;18.21
13497;BMP180;6820;49.374;8.452;2022-12-24T04:29:12;100256.59;;;18.21
13497;BMP180;6820;49.374;8.452;2022-12-24T04:33:14;100270.22;;;18.20
13497;BMP180;6820;49.374;8.452;2022-12-24T04:37:16;100270.91;;;18.15
13497;BMP180;6820;49.374;8.452;2022-12-24T04:41:19;100278.44;;;18.09
13497;BMP180;6820;49.374;8.452;2022-12-24T04:45:25;100277.50;;;18.07
13497;BMP180;6820;49.374;8.452;2022-12-24T04:49:26;100274.91;;;18.05
13497;BMP180;6820;49.374;8.452;2022-12-24T04:53:28;100270.75;;;18.09
13497;BMP180;6820;49.374;8.452;2022-12-24T04:57:31;100285.34;;;18.11
13497;BMP180;6820;49.374;8.452;2022-12-24T05:01:34;100277.63;;;18.10
13497;BMP180;6820;49.374;8.452;2022-12-24T05:05:35;100283.44;;;18.04
13497;BMP180;6820;49.374;8.452;2022-12-24T05:09:37;100285.84;;;18.01
13497;BMP180;6820;49.374;8.452;2022-12-24T05:13:39;100276.09;;;17.89
13497;BMP180;6820;49.374;8.452;2022-12-24T05:17:47;100282.47;;;17.75
13497;BMP180;6820;49.374;8.452;2022-12-24T05:21:49;100299.34;;;17.68
13497;BMP180;6820;49.374;8.452;2022-12-24T05:26:15;100293.13;;;17.61
13497;BMP180;6820;49.374;8.452;2022-12-24T05:30:22;100301.53;;;17.57
13497;BMP180;6820;49.374;8.452;2022-12-24T05:34:24;100298.16;;;17.58
13497;BMP180;6820;49.374;8.452;2022-12-24T05:38:26;100290.63;;;17.62
13497;BMP180;6820;49.374;8.452;2022-12-24T05:42:27;100302.78;;;17.69
13497;BMP180;6820;49.374;8.452;2022-12-24T05:46:29;100304.63;;;17.73
13497;BMP180;6820;49.374;8.452;2022-12-24T05:50:30;100303.72;;;17.71
13497;BMP180;6820;49.374;8.452;2022-12-24T05:54:38;100312.16;;;17.68
13497;BMP180;6820;49.374;8.452;2022-12-24T05:58:41;100314.13;;;17.75
13497;BMP180;6820;49.374;8.452;2022-12-24T06:02:42;100327.91;;;17.80
13497;BMP180;6820;49.374;8.452;2022-12-24T06:06:44;100323.63;;;17.79
13497;BMP180;6820;49.374;8.452;2022-12-24T06:10:46;100335.41;;;17.74
13497;BMP180;6820;49.374;8.452;2022-12-24T06:14:47;100328.41;;;17.69
13497;BMP180;6820;49.374;8.452;2022-12-24T06:18:49;100338.47;;;17.63
13497;BMP180;6820;49.374;8.452;2022-12-24T06:22:51;100345.13;;;17.58
13497;BMP180;6820;49.374;8.452;2022-12-24T06:26:52;100346.00;;;17.59
13497;BMP180;6820;49.374;8.452;2022-12-24T06:30:54;100352.03;;;17.59
13497;BMP180;6820;49.374;8.452;2022-12-24T06:35:03;100353.03;;;17.64
13497;BMP180;6820;49.374;8.452;2022-12-24T06:39:04;100347.97;;;17.66
13497;BMP180;6820;49.374;8.452;2022-12-24T06:43:06;100346.09;;;17.62
13497;BMP180;6820;49.374;8.452;2022-12-24T06:47:08;100351.13;;;17.59
13497;BMP180;6820;49.374;8.452;2022-12-24T06:51:10;100349.50;;;17.61
13497;BMP180;6820;49.374;8.452;2022-12-24T06:55:12;100360.72;;;17.64
13497;BMP180;6820;49.374;8.452;2022-12-24T06:59:14;100372.84;;;17.69
13497;BMP180;6820;49.374;8.452;2022-12-24T07:03:15;100376.59;;;17.79
13497;BMP180;6820;49.374;8.452;2022-12-24T07:07:17;100394.63;;;17.82
13497;BMP180;6820;49.374;8.452;2022-12-24T07:11:20;100392.22;;;17.86
13497;BMP180;6820;49.374;8.452;2022-12-24T07:15:21;100403.38;;;17.88
13497;BMP180;6820;49.374;8.452;2022-12-24T07:19:23;100391.41;;;17.87
13497;BMP180;6820;49.374;8.452;2022-12-24T07:23:25;100404.28;;;17.89
13497;BMP180;6820;49.374;8.452;2022-12-24T07:27:26;100398.13;;;17.84
13497;BMP180;6820;49.374;8.452;2022-12-24T07:31:28;100408.56;;;17.90
13497;BMP180;6820;49.374;8.452;2022-12-24T07:35:29;100405.16;;;17.91
13497;BMP180;6820;49.374;8.452;2022-12-24T07:39:31;100412.97;;;17.94
13497;BMP180;6820;49.374;8.452;2022-12-24T07:43:33;100430.97;;;17.95
13497;BMP180;6820;49.374;8.452;2022-12-24T07:47:34;100424.22;;;17.98
13497;BMP180;6820;49.374;8.452;2022-12-24T07:51:36;100423.22;;;17.94
13497;BMP180;6820;49.374;8.452;2022-12-24T07:55:38;100425.66;;;17.89
13497;BMP180;6820;49.374;8.452;2022-12-24T07:59:39;100425.31;;;17.80
13497;BMP180;6820;49.374;8.452;2022-12-24T08:03:41;100425.22;;;17.77
13497;BMP180;6820;49.374;8.452;2022-12-24T08:07:43;100429.50;;;17.77
13497;BMP180;6820;49.374;8.452;2022-12-24T08:11:44;100447.34;;;17.74
13497;BMP180;6820;49.374;8.452;2022-12-24T08:15:52;100468.00;;;17.78
13497;BMP180;6820;49.374;8.452;2022-12-24T08:19:54;100472.31;;;17.79
13497;BMP180;6820;49.374;8.452;2022-12-24T08:23:56;100463.84;;;17.82
13497;BMP180;6820;49.374;8.452;2022-12-24T08:27:57;100460.78;;;17.92
13497;BMP180;6820;49.374;8.452;2022-12-24T08:31:59;100452.34;;;17.96
13497;BMP180;6820;49.374;8.452;2022-12-24T08:36:01;100443.06;;;17.99
13497;BMP180;6820;49.374;8.452;2022-12-24T08:40:03;100442.19;;;17.98
13497;BMP180;6820;49.374;8.452;2022-12-24T08:44:05;100438.66;;;17.95
13497;BMP180;6820;49.374;8.452;2022-12-24T08:48:08;100442.81;;;17.92
13497;BMP180;6820;49.374;8.452;2022-12-24T08:52:09;100440.25;;;17.92
13497;BMP180;6820;49.374;8.452;2022-12-24T08:56:11;100448.06;;;17.95
13497;BMP180;6820;49.374;8.452;2022-12-24T09:00:13;100465.16;;;17.96
13497;BMP180;6820;49.374;8.452;2022-12-24T09:04:15;100471.91;;;17.92
13497;BMP180;6820;49.374;8.452;2022-12-24T09:08:17;100476.09;;;17.90
13497;BMP180;6820;49.374;8.452;2022-12-24T09:12:18;100480.25;;;17.87
13497;BMP180;6820;49.374;8.452;2022-12-24T09:16:20;100482.72;;;17.84
13497;BMP180;6820;49.374;8.452;2022-12-24T09:20:22;100480.97;;;17.83
13497;BMP180;6820;49.374;8.452;2022-12-24T09:24:23;100494.78;;;17.86
13497;BMP180;6820;49.374;8.452;2022-12-24T09:28:25;100494.78;;;17.86
13497;BMP180;6820;49.374;8.452;2022-12-24T09:32:27;100503.50;;;17.91
13497;BMP180;6820;49.374;8.452;2022-12-24T09:36:28;100507.06;;;17.96
13497;BMP180;6820;49.374;8.452;2022-12-24T09:40:35;100511.53;;;18.01
13497;BMP180;6820;49.374;8.452;2022-12-24T09:49:05;100537.75;;;18.18
13497;BMP180;6820;49.374;8.452;2022-12-24T09:53:18;100531.19;;;18.26
13497;BMP180;6820;49.374;8.452;2022-12-24T09:57:34;100530.66;;;18.35
13497;BMP180;6820;49.374;8.452;2022-12-24T10:01:37;100529.41;;;18.49
13497;BMP180;6820;49.374;8.452;2022-12-24T10:05:44;100521.03;;;18.55
13497;BMP180;6820;49.374;8.452;2022-12-24T10:10:12;100529.91;;;18.64
13497;BMP180;6820;49.374;8.452;2022-12-24T10:14:41;100527.94;;;18.83
13497;BMP180;6820;49.374;8.452;2022-12-24T10:23:22;100555.41;;;19.12
13497;BMP180;6820;49.374;8.452;2022-12-24T10:27:30;100551.69;;;19.30
13497;BMP180;6820;49.374;8.452;2022-12-24T10:31:35;100547.75;;;19.42
13497;BMP180;6820;49.374;8.452;2022-12-24T10:35:44;100551.66;;;19.59
13497;BMP180;6820;49.374;8.452;2022-12-24T10:39:46;100554.56;;;19.71
13497;BMP180;6820;49.374;8.452;2022-12-24T10:43:48;100546.41;;;19.85
13497;BMP180;6820;49.374;8.452;2022-12-24T10:47:55;100545.06;;;19.97
13497;BMP180;6820;49.374;8.452;2022-12-24T10:52:12;100550.28;;;20.00
13497;BMP180;6820;49.374;8.452;2022-12-24T10:56:16;100546.69;;;19.94
13497;BMP180;6820;49.374;8.452;2022-12-24T11:00:20;100553.31;;;19.86
13497;BMP180;6820;49.374;8.452;2022-12-24T11:04:26;100543.75;;;19.81
13497;BMP180;6820;49.374;8.452;2022-12-24T11:08:28;100544.47;;;19.77
13497;BMP180;6820;49.374;8.452;2022-12-24T11:12:38;100547.81;;;19.74
13497;BMP180;6820;49.374;8.452;2022-12-24T11:16:48;100516.47;;;19.87
13497;BMP180;6820;49.374;8.452;2022-12-24T11:20:51;100545.41;;;19.80
13497;BMP180;6820;49.374;8.452;2022-12-24T11:25:18;100533.72;;;19.60
13497;BMP180;6820;49.374;8.452;2022-12-24T11:29:25;100537.75;;;19.51
13497;BMP180;6820;49.374;8.452;2022-12-24T11:33:28;100543.69;;;19.50
13497;BMP180;6820;49.374;8.452;2022-12-24T11:37:30;100538.72;;;19.56
13497;BMP180;6820;49.374;8.452;2022-12-24T11:41:36;100529.47;;;19.62
13497;BMP180;6820;49.374;8.452;2022-12-24T11:45:38;100530.66;;;19.73
13497;BMP180;6820;49.374;8.452;2022-12-24T11:49:39;100532.56;;;19.80
13497;BMP180;6820;49.374;8.452;2022-12-24T11:57:55;100518.63;;;20.04
13497;BMP180;6820;49.374;8.452;2022-12-24T12:02:20;100523.53;;;19.94
13497;BMP180;6820;49.374;8.452;2022-12-24T12:10:39;100520.97;;;19.94
13497;BMP180;6820;49.374;8.452;2022-12-24T12:18:53;100522.28;;;19.80
13497;BMP180;6820;49.374;8.452;2022-12-24T12:27:27;100529.97;;;19.79
13497;BMP180;6820;49.374;8.452;2022-12-24T12:31:37;100535.91;;;19.76
13497;BMP180;6820;49.374;8.452;2022-12-24T12:35:42;100534.25;;;19.78
13497;BMP180;6820;49.374;8.452;2022-12-24T12:39:44;100541.06;;;19.78
13497;BMP180;6820;49.374;8.452;2022-12-24T12:48:32;100548.25;;;20.21
13497;BMP180;6820;49.374;8.452;2022-12-24T12:57:13;100555.06;;;20.19
13497;BMP180;6820;49.374;8.452;2022-12-24T13:01:26;100535.19;;;20.14
13497;BMP180;6820;49.374;8.452;2022-12-24T13:22:57;100559.69;;;20.00
13497;BMP180;6820;49.374;8.452;2022-12-24T13:39:19;100574.91;;;19.63
13497;BMP180;6820;49.374;8.452;2022-12-24T13:43:21;100570.47;;;19.56
13497;BMP180;6820;49.374;8.452;2022-12-24T13:47:23;100574.59;;;19.52
13497;BMP180;6820;49.374;8.452;2022-12-24T13:51:33;100566.88;;;19.52
13497;BMP180;6820;49.374;8.452;2022-12-24T13:55:34;100560.81;;;19.50
13497;BMP180;6820;49.374;8.452;2022-12-24T13:59:38;100570.25;;;19.51
13497;BMP180;6820;49.374;8.452;2022-12-24T14:03:49;100579.50;;;19.44
13497;BMP180;6820;49.374;8.452;2022-12-24T14:07:52;100572.41;;;19.36
13497;BMP180;6820;49.374;8.452;2022-12-24T14:16:03;100556.16;;;19.37
13497;BMP180;6820;49.374;8.452;2022-12-24T14:20:07;100554.66;;;19.43
13497;BMP180;6820;49.374;8.452;2022-12-24T14:24:15;100565.19;;;19.52
13497;BMP180;6820;49.374;8.452;2022-12-24T14:28:24;100563.69;;;19.60
13497;BMP180;6820;49.374;8.452;2022-12-24T14:32:38;100562.91;;;19.62
13497;BMP180;6820;49.374;8.452;2022-12-24T14:36:42;100566.34;;;19.63
13497;BMP180;6820;49.374;8.452;2022-12-24T14:41:03;100558.50;;;19.58
13497;BMP180;6820;49.374;8.452;2022-12-24T14:45:28;100567.59;;;19.48
13497;BMP180;6820;49.374;8.452;2022-12-24T14:54:18;100577.00;;;19.18
13497;BMP180;6820;49.374;8.452;2022-12-24T15:06:41;100581.31;;;18.92
13497;BMP180;6820;49.374;8.452;2022-12-24T15:10:46;100589.72;;;18.88
13497;BMP180;6820;49.374;8.452;2022-12-24T15:14:50;100593.94;;;18.86
13497;BMP180;6820;49.374;8.452;2022-12-24T15:19:22;100606.53;;;18.78
13497;BMP180;6820;49.374;8.452;2022-12-24T15:23:31;100608.13;;;18.75
13497;BMP180;6820;49.374;8.452;2022-12-24T15:27:38;100614.03;;;18.72
13497;BMP180;6820;49.374;8.452;2022-12-24T15:31:42;100618.31;;;18.72
13497;BMP180;6820;49.374;8.452;2022-12-24T15:35:52;100623.34;;;18.69
13497;BMP180;6820;49.374;8.452;2022-12-24T15:39:57;100622.34;;;18.65
13497;BMP180;6820;49.374;8.452;2022-12-24T15:44:01;100621.47;;;18.65
13497;BMP180;6820;49.374;8.452;2022-12-24T15:48:09;100634.38;;;18.66
13497;BMP180;6820;49.374;8.452;2022-12-24T15:52:13;100642.00;;;18.63
13497;BMP180;6820;49.374;8.452;2022-12-24T15:56:32;100624.72;;;18.60
13497;BMP180;6820;49.374;8.452;2022-12-24T16:00:34;100628.03;;;18.56
13497;BMP180;6820;49.374;8.452;2022-12-24T16:04:36;100637.47;;;18.57
13497;BMP180;6820;49.374;8.452;2022-12-24T16:08:39;100649.44;;;18.56
13497;BMP180;6820;49.374;8.452;2022-12-24T16:12:41;100635.66;;;18.54
13497;BMP180;6820;49.374;8.452;2022-12-24T16:16:47;100641.72;;;18.56
13497;BMP180;6820;49.374;8.452;2022-12-24T16:20:49;100644.41;;;18.59
13497;BMP180;6820;49.374;8.452;2022-12-24T16:24:51;100644.47;;;18.61
13497;BMP180;6820;49.374;8.452;2022-12-24T16:28:55;100640.09;;;18.58
13497;BMP180;6820;49.374;8.452;2022-12-24T16:32:57;100629.56;;;18.51
13497;BMP180;6820;49.374;8.452;2022-12-24T16:36:59;100620.75;;;18.43
13497;BMP180;6820;49.374;8.452;2022-12-24T16:41:01;100632.53;;;18.38
13497;BMP180;6820;49.374;8.452;2022-12-24T16:45:03;100639.31;;;18.36
13497;BMP180;6820;49.374;8.452;2022-12-24T16:49:05;100648.50;;;18.30
13497;BMP180;6820;49.374;8.452;2022-12-24T16:53:08;100656.88;;;18.24
13497;BMP180;6820;49.374;8.452;2022-12-24T16:57:18;100662.59;;;18.17
13497;BMP180;6820;49.374;8.452;2022-12-24T17:01:19;100663.22;;;18.10
13497;BMP180;6820;49.374;8.452;2022-12-24T17:05:21;100681.00;;;18.06
13497;BMP180;6820;49.374;8.452;2022-12-24T17:09:24;100667.91;;;18.00
13497;BMP180;6820;49.374;8.452;2022-12-24T17:13:26;100666.88;;;17.95
13497;BMP180;6820;49.374;8.452;2022-12-24T17:17:28;100662.56;;;17.94
13497;BMP180;6820;49.374;8.452;2022-12-24T17:21:30;100670.28;;;17.94
13497;BMP180;6820;49.374;8.452;2022-12-24T17:25:34;100672.97;;;17.98
13497;BMP180;6820;49.374;8.452;2022-12-24T17:29:36;100679.13;;;18.02
13497;BMP180;6820;49.374;8.452;2022-12-24T17:33:38;100681.81;;;18.05
13497;BMP180;6820;49.374;8.452;2022-12-24T17:37:39;100691.22;;;18.04
13497;BMP180;6820;49.374;8.452;2022-12-24T17:41:41;100698.94;;;18.06
13497;BMP180;6820;49.374;8.452;2022-12-24T17:45:42;100703.31;;;18.08
13497;BMP180;6820;49.374;8.452;2022-12-24T17:49:44;100691.31;;;18.07
13497;BMP180;6820;49.374;8.452;2022-12-24T17:53:46;100680.78;;;18.01
13497;BMP180;6820;49.374;8.452;2022-12-24T17:57:48;100674.56;;;17.95
13497;BMP180;6820;49.374;8.452;2022-12-24T18:01:50;100678.53;;;17.87
13497;BMP180;6820;49.374;8.452;2022-12-24T18:05:51;100671.56;;;17.83
13497;BMP180;6820;49.374;8.452;2022-12-24T18:09:53;100670.00;;;17.87
13497;BMP180;6820;49.374;8.452;2022-12-24T18:13:56;100663.88;;;17.83
13497;BMP180;6820;49.374;8.452;2022-12-24T18:17:57;100675.66;;;17.78
13497;BMP180;6820;49.374;8.452;2022-12-24T18:21:59;100686.59;;;17.74
13497;BMP180;6820;49.374;8.452;2022-12-24T18:26:03;100682.13;;;17.69
13497;BMP180;6820;49.374;8.452;2022-12-24T18:30:06;100688.84;;;17.66
13497;BMP180;6820;49.374;8.452;2022-12-24T18:34:10;100687.78;;;17.61
13497;BMP180;6820;49.374;8.452;2022-12-24T18:38:12;100672.41;;;17.61
13497;BMP180;6820;49.374;8.452;2022-12-24T18:42:14;100678.34;;;17.60
13497;BMP180;6820;49.374;8.452;2022-12-24T18:46:18;100671.34;;;17.56
13497;BMP180;6820;49.374;8.452;2022-12-24T18:50:20;100666.31;;;17.57
13497;BMP180;6820;49.374;8.452;2022-12-24T18:54:22;100673.22;;;17.60
13497;BMP180;6820;49.374;8.452;2022-12-24T18:58:23;100667.16;;;17.58
13497;BMP180;6820;49.374;8.452;2022-12-24T19:02:25;100678.09;;;17.54
13497;BMP180;6820;49.374;8.452;2022-12-24T19:06:27;100691.81;;;17.54
13497;BMP180;6820;49.374;8.452;2022-12-24T19:10:28;100698.97;;;17.63
13497;BMP180;6820;49.374;8.452;2022-12-24T19:14:30;100701.53;;;17.63
13497;BMP180;6820;49.374;8.452;2022-12-24T19:18:32;100710.16;;;17.65
13497;BMP180;6820;49.374;8.452;2022-12-24T19:22:34;100711.19;;;17.69
13497;BMP180;6820;49.374;8.452;2022-12-24T19:26:36;100714.91;;;17.77
13497;BMP180;6820;49.374;8.452;2022-12-24T19:30:40;100744.34;;;17.87
13497;BMP180;6820;49.374;8.452;2022-12-24T19:34:43;100723.63;;;18.02
13497;BMP180;6820;49.374;8.452;2022-12-24T19:38:45;100729.47;;;18.00
13497;BMP180;6820;49.374;8.452;2022-12-24T19:42:46;100728.41;;;17.95
13497;BMP180;6820;49.374;8.452;2022-12-24T19:46:50;100725.97;;;17.98
13497;BMP180;6820;49.374;8.452;2022-12-24T19:50:58;100715.66;;;17.97
13497;BMP180;6820;49.374;8.452;2022-12-24T19:55:00;100717.13;;;17.90
13497;BMP180;6820;49.374;8.452;2022-12-24T19:59:02;100720.41;;;17.86
13497;BMP180;6820;49.374;8.452;2022-12-24T20:03:04;100717.72;;;17.83
13497;BMP180;6820;49.374;8.452;2022-12-24T20:07:06;100737.22;;;17.80
13497;BMP180;6820;49.374;8.452;2022-12-24T20:11:10;100736.25;;;17.76
13497;BMP180;6820;49.374;8.452;2022-12-24T20:15:12;100729.13;;;17.69
13497;BMP180;6820;49.374;8.452;2022-12-24T20:19:14;100733.03;;;17.60
13497;BMP180;6820;49.374;8.452;2022-12-24T20:23:15;100740.63;;;17.57
13497;BMP180;6820;49.374;8.452;2022-12-24T20:27:17;100751.00;;;17.60
13497;BMP180;6820;49.374;8.452;2022-12-24T20:31:21;100752.09;;;17.67
13497;BMP180;6820;49.374;8.452;2022-12-24T20:35:23;100753.78;;;17.66
13497;BMP180;6820;49.374;8.452;2022-12-24T20:39:25;100757.28;;;17.68
13497;BMP180;6820;49.374;8.452;2022-12-24T20:43:26;100762.34;;;17.67
13497;BMP180;6820;49.374;8.452;2022-12-24T20:47:35;100762.72;;;17.75
13497;BMP180;6820;49.374;8.452;2022-12-24T20:51:37;100763.38;;;17.71
13497;BMP180;6820;49.374;8.452;2022-12-24T20:55:39;100771.91;;;17.70
13497;BMP180;6820;49.374;8.452;2022-12-24T20:59:40;100771.59;;;17.63
13497;BMP180;6820;49.374;8.452;2022-12-24T21:03:44;100756.03;;;17.59
13497;BMP180;6820;49.374;8.452;2022-12-24T21:07:45;100756.69;;;17.53
13497;BMP180;6820;49.374;8.452;2022-12-24T21:11:48;100747.13;;;17.49
13497;BMP180;6820;49.374;8.452;2022-12-24T21:15:49;100743.59;;;17.46
13497;BMP180;6820;49.374;8.452;2022-12-24T21:19:51;100742.47;;;17.39
13497;BMP180;6820;49.374;8.452;2022-12-24T21:23:53;100731.16;;;17.35
13497;BMP180;6820;49.374;8.452;2022-12-24T21:27:54;100727.53;;;17.30
13497;BMP180;6820;49.374;8.452;2022-12-24T21:31:56;100737.53;;;17.24
13497;BMP180;6820;49.374;8.452;2022-12-24T21:35:58;100725.38;;;17.18
13497;BMP180;6820;49.374;8.452;2022-12-24T21:39:59;100719.25;;;17.15
13497;BMP180;6820;49.374;8.452;2022-12-24T21:44:01;100724.31;;;17.13
13497;BMP180;6820;49.374;8.452;2022-12-24T21:48:03;100735.50;;;17.15
13497;BMP180;6820;49.374;8.452;2022-12-24T21:52:24;100732.25;;;17.19
13497;BMP180;6820;49.374;8.452;2022-12-24T21:56:26;100731.47;;;17.22
13497;BMP180;6820;49.374;8.452;2022-12-24T22:00:28;100735.06;;;17.25
13497;BMP180;6820;49.374;8.452;2022-12-24T22:04:31;100725.88;;;17.30
13497;BMP180;6820;49.374;8.452;2022-12-24T22:08:33;100709.75;;;17.33
13497;BMP180;6820;49.374;8.452;2022-12-24T22:12:53;100716.53;;;17.32
13497;BMP180;6820;49.374;8.452;2022-12-24T22:16:55;100708.28;;;17.39
13497;BMP180;6820;49.374;8.452;2022-12-24T22:21:00;100721.78;;;17.35
13497;BMP180;6820;49.374;8.452;2022-12-24T22:25:02;100730.25;;;17.33
13497;BMP180;6820;49.374;8.452;2022-12-24T22:29:04;100724.34;;;17.35
13497;BMP180;6820;49.374;8.452;2022-12-24T22:33:07;100727.97;;;17.40
13497;BMP180;6820;49.374;8.452;2022-12-24T22:37:09;100720.38;;;17.43
13497;BMP180;6820;49.374;8.452;2022-12-24T22:41:12;100723.66;;;17.39
13497;BMP180;6820;49.374;8.452;2022-12-24T22:45:14;100728.59;;;17.35
13497;BMP180;6820;49.374;8.452;2022-12-24T22:49:22;100731.91;;;17.32
13497;BMP180;6820;49.374;8.452;2022-12-24T22:53:24;100735.19;;;17.28
13497;BMP180;6820;49.374;8.452;2022-12-24T22:57:26;100733.13;;;17.20
13497;BMP180;6820;49.374;8.452;2022-12-24T23:01:35;100740.50;;;17.12
13497;BMP180;6820;49.374;8.452;2022-12-24T23:05:37;100729.91;;;17.05
13497;BMP180;6820;49.374;8.452;2022-12-24T23:09:39;100726.41;;;17.03
13497;BMP180;6820;49.374;8.452;2022-12-24T23:13:45;100728.28;;;17.07
13497;BMP180;6820;49.374;8.452;2022-12-24T23:18:06;100714.72;;;17.09
13497;BMP180;6820;49.374;8.452;2022-12-24T23:22:09;100714.72;;;17.09
13497;BMP180;6820;49.374;8.452;2022-12-24T23:26:13;100713.78;;;17.07
13497;BMP180;6820;49.374;8.452;2022-12-24T23:30:15;100716.16;;;17.03
13497;BMP180;6820;49.374;8.452;2022-12-24T23:34:17;100715.38;;;17.04
13497;BMP180;6820;49.374;8.452;2022-12-24T23:38:19;100704.38;;;17.07
13497;BMP180;6820;49.374;8.452;2022-12-24T23:42:21;100719.78;;;17.08
13497;BMP180;6820;49.374;8.452;2022-12-24T23:46:22;100722.81;;;17.18
13497;BMP180;6820;49.374;8.452;2022-12-24T23:50:24;100725.56;;;17.23
13497;BMP180;6820;49.374;8.452;2022-12-24T23:54:26;100718.84;;;17.26
13497;BMP180;6820;49.374;8.452;2022-12-24T23:58:27;100726.91;;;17.35
